Sumihiro Maru — JD3168 — position and weather

sailwx.info

Track history (hours):
 
Tides and Currents Weather Stations Pressure Air Temp Water Temp Dewpoint Dewpoint Depression Visibility Wind Speed Wind Dir Waves Ship Positions

Sumihiro Maru

Last reported at 2018-Feb-20 04:08 UTC. Time now 2018-Feb-20 05:29 UTC.
Position N 33°16' E 131°40'.

Length 63 m; draft 4 m.

Type: Cargo ship. MMSI: 431002283.

Date/timePositionNaut miles runAvg speedWind from/ knotsBaromVisibWave heightAir tempDewpointWater temp
2018-Feb-20 04:08N 33°16' E 131°40'0 0.0
2018-Feb-20 02:20N 33°16' E 131°40'0 0.0
2018-Feb-20 01:50N 33°16' E 131°40'0 0.3
2018-Feb-20 01:19N 33°16' E 131°40'0 0.1
2018-Feb-19 23:39N 33°16' E 131°40'0 0.0
2018-Feb-19 20:39N 33°16' E 131°40'0 0.0
2018-Feb-19 20:21N 33°16' E 131°40'0 0.1
2018-Feb-19 19:51N 33°16' E 131°40'0 0.0
2018-Feb-19 19:27N 33°16' E 131°40'0 0.1
2018-Feb-19 18:45N 33°16' E 131°40'0 0.2
2018-Feb-19 18:27N 33°16' E 131°40'0 0.0
2018-Feb-19 17:39N 33°16' E 131°40'0 0.0
2018-Feb-19 15:21N 33°16' E 131°40'0 0.0
2018-Feb-19 14:59N 33°16' E 131°40'3 6.5
2018-Feb-19 14:30N 33°19' E 131°41'711.7
2018-Feb-19 13:53N 33°26' E 131°45'411.1
2018-Feb-19 13:30N 33°30' E 131°46'510.6
2018-Feb-19 12:59N 33°35' E 131°45'511.3
2018-Feb-19 12:30N 33°40' E 131°42'510.7
2018-Feb-19 12:00N 33°42' E 131°36'510.9
2018-Feb-19 11:30N 33°44' E 131°30'611.3
2018-Feb-19 11:00N 33°46' E 131°23'611.5
2018-Feb-19 10:30N 33°49' E 131°17'611.5
2018-Feb-19 10:00N 33°51' E 131°11'611.7
2018-Feb-19 09:30N 33°55' E 131°05'611.2
2018-Feb-19 09:00N 33°58' E 131°00'612.8
2018-Feb-19 08:31N 33°54' E 130°54'5 9.3
2018-Feb-19 08:01N 33°55' E 130°49'0 0.1
2018-Feb-19 07:29N 33°55' E 130°49'0 0.0
2018-Feb-19 06:59N 33°55' E 130°49'0 0.0
2018-Feb-19 06:29N 33°55' E 130°49'0 0.0
2018-Feb-19 05:56N 33°55' E 130°49'0 0.0
2018-Feb-19 05:29N 33°55' E 130°49'0 0.0
2018-Feb-19 04:59N 33°55' E 130°49'0 0.0
2018-Feb-19 04:29N 33°55' E 130°49'0 0.0
2018-Feb-19 03:59N 33°55' E 130°49'0 0.0
2018-Feb-19 03:29N 33°55' E 130°49'0 0.0
2018-Feb-19 02:56N 33°55' E 130°49'0 0.0
2018-Feb-19 02:29N 33°55' E 130°49'0 0.1
2018-Feb-19 02:01N 33°55' E 130°49'3 6.9
2018-Feb-19 01:30N 33°56' E 130°53'510.5
2018-Feb-19 01:00N 33°58' E 130°58'510.6
2018-Feb-19 00:30N 33°57' E 131°05'611.3
2018-Feb-19 00:00N 33°54' E 131°10'611.4
2018-Feb-18 23:30N 33°51' E 131°17'611.4
2018-Feb-18 23:01N 33°51' E 131°23'611.3
2018-Feb-18 22:30N 33°50' E 131°30'611.3
2018-Feb-18 22:00N 33°49' E 131°37'610.9
2018-Feb-18 21:28N 33°48' E 131°44'610.7
2018-Feb-18 20:53N 33°47' E 131°51'410.4
2018-Feb-18 20:29N 33°46' E 131°56'510.7
2018-Feb-18 20:00N 33°46' E 132°02'711.5
2018-Feb-18 19:21N 33°49' E 132°10'1311.1
2018-Feb-18 18:13N 33°52' E 132°25'312.1
2018-Feb-18 17:57N 33°54' E 132°28'612.1
2018-Feb-18 17:27N 33°58' E 132°33'512.0
2018-Feb-18 17:01N 34°02' E 132°38'8510.1
2018-Feb-18 08:36N 34°25' E 134°17'110.0
2018-Feb-18 08:29N 34°25' E 134°18'510.2
2018-Feb-18 07:59N 34°27' E 134°24'510.5
2018-Feb-18 07:30N 34°28' E 134°30'510.0
2018-Feb-18 06:59N 34°30' E 134°36'5 9.8
2018-Feb-18 06:30N 34°32' E 134°41'5 9.8
2018-Feb-18 06:00N 34°33' E 134°47'5 9.4
2018-Feb-18 05:30N 34°35' E 134°52'4 8.9
2018-Feb-18 05:01N 34°37' E 134°57'4 8.2
2018-Feb-18 04:30N 34°37' E 135°02'5 9.7
2018-Feb-18 04:01N 34°36' E 135°08'510.8
2018-Feb-18 03:30N 34°36' E 135°14'510.5
2018-Feb-18 03:01N 34°36' E 135°21'510.1
2018-Feb-18 02:30N 34°35' E 135°27'1 2.0
2018-Feb-18 02:00N 34°34' E 135°27'0 0.1
2018-Feb-18 01:31N 34°34' E 135°27'0 0.0
2018-Feb-17 15:08N 34°34' E 135°27'0 0.0
2018-Feb-17 14:59N 34°34' E 135°27'0 0.0
2018-Feb-17 14:29N 34°34' E 135°27'0 0.0
2018-Feb-17 13:59N 34°34' E 135°27'0 0.0
2018-Feb-17 13:29N 34°34' E 135°27'0 0.0
2018-Feb-17 12:59N 34°34' E 135°27'0 0.0
2018-Feb-17 12:29N 34°34' E 135°27'0 0.0
2018-Feb-17 11:59N 34°34' E 135°27'0 0.1
2018-Feb-17 11:29N 34°34' E 135°27'0 0.0
2018-Feb-17 10:59N 34°34' E 135°27'0 0.0
2018-Feb-17 10:29N 34°34' E 135°27'0 0.0
2018-Feb-17 09:59N 34°34' E 135°27'0 0.0
2018-Feb-17 09:29N 34°34' E 135°27'2 5.0
2018-Feb-17 09:00N 34°36' E 135°25'3 6.2
2018-Feb-17 08:30N 34°39' E 135°26'1 2.0
2018-Feb-17 08:01N 34°39' E 135°28'0 0.0
2018-Feb-17 07:28N 34°39' E 135°28'0 0.0
2018-Feb-17 06:58N 34°39' E 135°28'0 0.0
2018-Feb-17 06:28N 34°39' E 135°28'0 0.0
2018-Feb-17 05:58N 34°39' E 135°28'0 0.0
2018-Feb-17 05:25N 34°39' E 135°28'0 0.0
2018-Feb-17 04:58N 34°39' E 135°28'0 0.0
2018-Feb-17 04:28N 34°39' E 135°28'0 0.0
2018-Feb-17 03:55N 34°39' E 135°28'0 0.0
2018-Feb-17 03:28N 34°39' E 135°28'0 0.0
2018-Feb-17 02:55N 34°39' E 135°28'0 0.0
2018-Feb-17 02:25N 34°39' E 135°28'0 0.0
2018-Feb-17 01:59N 34°39' E 135°28'0 0.2
2018-Feb-17 01:31N 34°39' E 135°27'4 8.2
2018-Feb-17 01:00N 34°38' E 135°23'510.4
2018-Feb-17 00:30N 34°36' E 135°17'510.7
2018-Feb-17 00:01N 34°35' E 135°10'510.4
2018-Feb-16 23:30N 34°35' E 135°04'3 6.9
2018-Feb-16 23:00N 34°37' E 135°00'4 7.5
2018-Feb-16 22:30N 34°36' E 134°56'4 8.2
2018-Feb-16 22:01N 34°38' E 134°52'5 9.6
2018-Feb-16 21:30N 34°40' E 134°46'510.5
2018-Feb-16 21:01N 34°43' E 134°41'5 9.0
2018-Feb-16 20:30N 34°47' E 134°38'0 0.1
2018-Feb-16 17:09N 34°47' E 134°38'0 0.0
2018-Feb-16 16:15N 34°47' E 134°38'0 0.0
2018-Feb-16 14:39N 34°47' E 134°38'0 0.0
2018-Feb-16 14:27N 34°47' E 134°38'0 0.0
2018-Feb-16 13:57N 34°47' E 134°38'0 0.0
2018-Feb-16 13:27N 34°47' E 134°38'0 0.0
2018-Feb-16 11:27N 34°47' E 134°38'0 0.0
2018-Feb-16 08:39N 34°47' E 134°38'0 0.0
2018-Feb-16 08:27N 34°47' E 134°38'0 0.0
2018-Feb-16 07:03N 34°47' E 134°38'0 0.0
2018-Feb-16 06:33N 34°47' E 134°38'0 0.1
2018-Feb-16 06:27N 34°47' E 134°38'0 0.0
2018-Feb-16 05:57N 34°47' E 134°38'0 0.0
2018-Feb-16 05:27N 34°47' E 134°38'0 0.0
2018-Feb-16 04:15N 34°47' E 134°38'0 0.0
2018-Feb-16 03:57N 34°47' E 134°38'0 0.0
2018-Feb-16 01:01N 34°47' E 134°38'0 0.0
2018-Feb-16 00:59N 34°47' E 134°38'4 5.6
2018-Feb-16 00:20N 34°44' E 134°37'4 9.9
2018-Feb-15 23:58N 34°42' E 134°33'9 9.9
2018-Feb-15 23:04N 34°39' E 134°23'12 9.5
2018-Feb-15 21:47N 34°33' E 134°10'76 9.5
2018-Feb-15 13:46N 34°02' E 132°45'310.7
2018-Feb-15 13:30N 33°59' E 132°44'511.2
2018-Feb-15 13:00N 33°55' E 132°40'1911.1
2018-Feb-15 11:18N 33°42' E 132°23'2511.4
2018-Feb-15 09:06N 33°28' E 131°59'311.4
2018-Feb-15 08:49N 33°26' E 131°56'311.0
2018-Feb-15 08:30N 33°24' E 131°52'510.6
2018-Feb-15 07:59N 33°21' E 131°46'510.6
2018-Feb-15 07:30N 33°18' E 131°41'3 0.4
2018-Feb-14 23:36N 33°16' E 131°40'0 2.6
2018-Feb-14 23:27N 33°16' E 131°40'711.3
2018-Feb-14 22:52N 33°23' E 131°41'0 0.5
2018-Feb-14 22:08N 33°23' E 131°41'0 0.0
2018-Feb-14 21:56N 33°23' E 131°41'0 0.0
2018-Feb-14 20:26N 33°23' E 131°41'0 0.0
2018-Feb-14 19:50N 33°23' E 131°41'0 0.1
2018-Feb-14 19:14N 33°23' E 131°41'0 0.0
2018-Feb-14 18:56N 33°23' E 131°41'0 0.0
2018-Feb-14 18:26N 33°23' E 131°41'0 0.0
2018-Feb-14 17:59N 33°23' E 131°41'0 0.0
2018-Feb-14 17:20N 33°23' E 131°41'0 0.0
2018-Feb-14 16:44N 33°23' E 131°41'0 0.0
2018-Feb-14 16:29N 33°23' E 131°41'0 0.0
2018-Feb-14 15:56N 33°23' E 131°41'0 0.0
2018-Feb-14 15:28N 33°23' E 131°41'0 0.0
2018-Feb-14 14:55N 33°23' E 131°41'0 0.0
2018-Feb-14 14:26N 33°23' E 131°41'0 0.0
2018-Feb-14 13:55N 33°23' E 131°41'0 0.0
2018-Feb-14 13:20N 33°23' E 131°41'0 0.0
2018-Feb-14 12:53N 33°23' E 131°41'0 0.0
2018-Feb-14 12:28N 33°23' E 131°41'0 0.1
2018-Feb-14 11:55N 33°23' E 131°41'0 0.1
2018-Feb-14 11:23N 33°23' E 131°41'0 0.0
2018-Feb-14 10:38N 33°23' E 131°41'0 0.0
2018-Feb-14 10:23N 33°23' E 131°41'0 0.0
2018-Feb-14 09:58N 33°23' E 131°41'0 0.0
2018-Feb-14 09:20N 33°23' E 131°41'0 0.0
2018-Feb-14 08:55N 33°23' E 131°41'0 0.0
2018-Feb-14 08:28N 33°23' E 131°41'0 0.0
2018-Feb-14 07:44N 33°23' E 131°41'0 0.0
2018-Feb-14 07:29N 33°23' E 131°41'710.1
2018-Feb-14 06:45N 33°28' E 131°48'411.2
2018-Feb-14 06:22N 33°31' E 131°51'2611.2
2018-Feb-14 04:01N 33°53' E 132°10'112.1
2018-Feb-14 03:54N 33°54' E 132°09'811.2
2018-Feb-14 03:14N 34°00' E 132°14'312.3
2018-Feb-14 02:59N 34°03' E 132°15'612.1
2018-Feb-14 02:31N 34°08' E 132°18'612.1
2018-Feb-14 02:01N 34°14' E 132°21'611.5
2018-Feb-14 01:31N 34°17' E 132°26'4 7.8
2018-Feb-14 00:59N 34°20' E 132°30'0 0.0
2018-Feb-14 00:26N 34°20' E 132°30'0 0.0
2018-Feb-13 23:59N 34°20' E 132°30'0 0.0
2018-Feb-13 23:29N 34°20' E 132°30'0 0.1
2018-Feb-13 23:00N 34°20' E 132°30'0 0.5
2018-Feb-13 22:30N 34°20' E 132°30'0 0.0
2018-Feb-13 22:00N 34°20' E 132°30'0 0.0
2018-Feb-13 21:27N 34°20' E 132°30'0 0.0
2018-Feb-13 21:00N 34°20' E 132°30'0 0.0
2018-Feb-13 20:30N 34°20' E 132°30'0 0.0
2018-Feb-13 19:57N 34°20' E 132°30'0 0.0
2018-Feb-13 19:30N 34°20' E 132°30'0 0.0
2018-Feb-13 19:00N 34°20' E 132°30'0 0.0
2018-Feb-13 18:30N 34°20' E 132°30'0 0.0
2018-Feb-13 18:00N 34°20' E 132°30'0 0.0
2018-Feb-13 17:30N 34°20' E 132°30'0 0.0
2018-Feb-13 16:54N 34°20' E 132°30'0 0.0
2018-Feb-13 16:30N 34°20' E 132°30'0 0.0
2018-Feb-13 16:00N 34°20' E 132°30'0 0.0
2018-Feb-13 15:30N 34°20' E 132°30'0 0.0
2018-Feb-13 15:00N 34°20' E 132°30'0 0.0
2018-Feb-13 14:30N 34°20' E 132°30'0 0.0
2018-Feb-13 14:00N 34°20' E 132°30'0 0.0
2018-Feb-13 13:30N 34°20' E 132°30'0 0.0
2018-Feb-13 13:00N 34°20' E 132°30'0 0.0
2018-Feb-13 12:30N 34°20' E 132°30'0 0.0
2018-Feb-13 12:00N 34°20' E 132°30'0 0.0
2018-Feb-13 11:30N 34°20' E 132°30'0 0.1
2018-Feb-13 11:00N 34°20' E 132°30'0 0.0
2018-Feb-13 10:30N 34°20' E 132°30'0 0.0
2018-Feb-13 10:00N 34°20' E 132°30'0 0.0
2018-Feb-13 09:30N 34°20' E 132°30'0 0.0
2018-Feb-13 08:57N 34°20' E 132°30'0 0.0
2018-Feb-13 08:27N 34°20' E 132°30'0 0.0
2018-Feb-13 07:57N 34°20' E 132°30'0 0.0
2018-Feb-13 07:30N 34°20' E 132°30'0 0.0
2018-Feb-13 07:00N 34°20' E 132°30'0 0.0
2018-Feb-13 06:30N 34°20' E 132°30'0 0.0
2018-Feb-13 06:00N 34°20' E 132°30'0 0.0
2018-Feb-13 05:30N 34°20' E 132°30'0 0.0
2018-Feb-13 05:00N 34°20' E 132°30'0 0.0
2018-Feb-13 04:30N 34°20' E 132°30'0 0.0
2018-Feb-13 04:01N 34°20' E 132°30'2 4.6
2018-Feb-13 03:31N 34°18' E 132°30'611.3
2018-Feb-13 03:00N 34°12' E 132°32'4 0.5
2018-Feb-12 19:07N 34°13' E 132°37'0 0.0
2018-Feb-12 18:58N 34°13' E 132°37'3 6.7
2018-Feb-12 18:29N 34°10' E 132°38'91 9.5
2018-Feb-12 08:57N 34°39' E 134°23'510.1
2018-Feb-12 08:28N 34°41' E 134°28'510.0
2018-Feb-12 07:59N 34°43' E 134°33'5 9.4
2018-Feb-12 07:29N 34°46' E 134°38'0 0.0
2018-Feb-11 16:22N 34°46' E 134°38'0 1.1
2018-Feb-11 15:59N 34°45' E 134°38'0 0.0
2018-Feb-11 15:29N 34°45' E 134°38'0 0.0
2018-Feb-11 14:53N 34°45' E 134°38'0 0.0
2018-Feb-11 13:59N 34°45' E 134°38'  
Track history (hours):
 
Tides and Currents Weather Stations Pressure Air Temp Water Temp Dewpoint Dewpoint Depression Visibility Wind Speed Wind Dir Waves Ship Positions

Sumihiro Maru

Last reported at 2018-Feb-20 04:08 UTC. Time now 2018-Feb-20 05:29 UTC.
Position N 33°16' E 131°40'.

Length 63 m; draft 4 m.

Type: Cargo ship. MMSI: 431002283.

Date/timePositionNaut miles runAvg speedWind from/ knotsBaromVisibWave heightAir tempDewpointWater temp
2018-Feb-20 04:08N 33°16' E 131°40'0 0.0
2018-Feb-20 02:20N 33°16' E 131°40'0 0.0
2018-Feb-20 01:50N 33°16' E 131°40'0 0.3
2018-Feb-20 01:19N 33°16' E 131°40'0 0.1
2018-Feb-19 23:39N 33°16' E 131°40'0 0.0
2018-Feb-19 20:39N 33°16' E 131°40'0 0.0
2018-Feb-19 20:21N 33°16' E 131°40'0 0.1
2018-Feb-19 19:51N 33°16' E 131°40'0 0.0
2018-Feb-19 19:27N 33°16' E 131°40'0 0.1
2018-Feb-19 18:45N 33°16' E 131°40'0 0.2
2018-Feb-19 18:27N 33°16' E 131°40'0 0.0
2018-Feb-19 17:39N 33°16' E 131°40'0 0.0
2018-Feb-19 15:21N 33°16' E 131°40'0 0.0
2018-Feb-19 14:59N 33°16' E 131°40'3 6.5
2018-Feb-19 14:30N 33°19' E 131°41'711.7
2018-Feb-19 13:53N 33°26' E 131°45'411.1
2018-Feb-19 13:30N 33°30' E 131°46'510.6
2018-Feb-19 12:59N 33°35' E 131°45'511.3
2018-Feb-19 12:30N 33°40' E 131°42'510.7
2018-Feb-19 12:00N 33°42' E 131°36'510.9
2018-Feb-19 11:30N 33°44' E 131°30'611.3
2018-Feb-19 11:00N 33°46' E 131°23'611.5
2018-Feb-19 10:30N 33°49' E 131°17'611.5
2018-Feb-19 10:00N 33°51' E 131°11'611.7
2018-Feb-19 09:30N 33°55' E 131°05'611.2
2018-Feb-19 09:00N 33°58' E 131°00'612.8
2018-Feb-19 08:31N 33°54' E 130°54'5 9.3
2018-Feb-19 08:01N 33°55' E 130°49'0 0.1
2018-Feb-19 07:29N 33°55' E 130°49'0 0.0
2018-Feb-19 06:59N 33°55' E 130°49'0 0.0
2018-Feb-19 06:29N 33°55' E 130°49'0 0.0
2018-Feb-19 05:56N 33°55' E 130°49'0 0.0
2018-Feb-19 05:29N 33°55' E 130°49'0 0.0
2018-Feb-19 04:59N 33°55' E 130°49'0 0.0
2018-Feb-19 04:29N 33°55' E 130°49'0 0.0
2018-Feb-19 03:59N 33°55' E 130°49'0 0.0
2018-Feb-19 03:29N 33°55' E 130°49'0 0.0
2018-Feb-19 02:56N 33°55' E 130°49'0 0.0
2018-Feb-19 02:29N 33°55' E 130°49'0 0.1
2018-Feb-19 02:01N 33°55' E 130°49'3 6.9
2018-Feb-19 01:30N 33°56' E 130°53'510.5
2018-Feb-19 01:00N 33°58' E 130°58'510.6
2018-Feb-19 00:30N 33°57' E 131°05'611.3
2018-Feb-19 00:00N 33°54' E 131°10'611.4
2018-Feb-18 23:30N 33°51' E 131°17'611.4
2018-Feb-18 23:01N 33°51' E 131°23'611.3
2018-Feb-18 22:30N 33°50' E 131°30'611.3
2018-Feb-18 22:00N 33°49' E 131°37'610.9
2018-Feb-18 21:28N 33°48' E 131°44'610.7
2018-Feb-18 20:53N 33°47' E 131°51'410.4
2018-Feb-18 20:29N 33°46' E 131°56'510.7
2018-Feb-18 20:00N 33°46' E 132°02'711.5
2018-Feb-18 19:21N 33°49' E 132°10'1311.1
2018-Feb-18 18:13N 33°52' E 132°25'312.1
2018-Feb-18 17:57N 33°54' E 132°28'612.1
2018-Feb-18 17:27N 33°58' E 132°33'512.0
2018-Feb-18 17:01N 34°02' E 132°38'8510.1
2018-Feb-18 08:36N 34°25' E 134°17'110.0
2018-Feb-18 08:29N 34°25' E 134°18'510.2
2018-Feb-18 07:59N 34°27' E 134°24'510.5
2018-Feb-18 07:30N 34°28' E 134°30'510.0
2018-Feb-18 06:59N 34°30' E 134°36'5 9.8
2018-Feb-18 06:30N 34°32' E 134°41'5 9.8
2018-Feb-18 06:00N 34°33' E 134°47'5 9.4
2018-Feb-18 05:30N 34°35' E 134°52'4 8.9
2018-Feb-18 05:01N 34°37' E 134°57'4 8.2
2018-Feb-18 04:30N 34°37' E 135°02'5 9.7
2018-Feb-18 04:01N 34°36' E 135°08'510.8
2018-Feb-18 03:30N 34°36' E 135°14'510.5
2018-Feb-18 03:01N 34°36' E 135°21'510.1
2018-Feb-18 02:30N 34°35' E 135°27'1 2.0
2018-Feb-18 02:00N 34°34' E 135°27'0 0.1
2018-Feb-18 01:31N 34°34' E 135°27'0 0.0
2018-Feb-17 15:08N 34°34' E 135°27'0 0.0
2018-Feb-17 14:59N 34°34' E 135°27'0 0.0
2018-Feb-17 14:29N 34°34' E 135°27'0 0.0
2018-Feb-17 13:59N 34°34' E 135°27'0 0.0
2018-Feb-17 13:29N 34°34' E 135°27'0 0.0
2018-Feb-17 12:59N 34°34' E 135°27'0 0.0
2018-Feb-17 12:29N 34°34' E 135°27'0 0.0
2018-Feb-17 11:59N 34°34' E 135°27'0 0.1
2018-Feb-17 11:29N 34°34' E 135°27'0 0.0
2018-Feb-17 10:59N 34°34' E 135°27'0 0.0
2018-Feb-17 10:29N 34°34' E 135°27'0 0.0
2018-Feb-17 09:59N 34°34' E 135°27'0 0.0
2018-Feb-17 09:29N 34°34' E 135°27'2 5.0
2018-Feb-17 09:00N 34°36' E 135°25'3 6.2
2018-Feb-17 08:30N 34°39' E 135°26'1 2.0
2018-Feb-17 08:01N 34°39' E 135°28'0 0.0
2018-Feb-17 07:28N 34°39' E 135°28'0 0.0
2018-Feb-17 06:58N 34°39' E 135°28'0 0.0
2018-Feb-17 06:28N 34°39' E 135°28'0 0.0
2018-Feb-17 05:58N 34°39' E 135°28'0 0.0
2018-Feb-17 05:25N 34°39' E 135°28'0 0.0
2018-Feb-17 04:58N 34°39' E 135°28'0 0.0
2018-Feb-17 04:28N 34°39' E 135°28'0 0.0
2018-Feb-17 03:55N 34°39' E 135°28'0 0.0
2018-Feb-17 03:28N 34°39' E 135°28'0 0.0
2018-Feb-17 02:55N 34°39' E 135°28'0 0.0
2018-Feb-17 02:25N 34°39' E 135°28'0 0.0
2018-Feb-17 01:59N 34°39' E 135°28'0 0.2
2018-Feb-17 01:31N 34°39' E 135°27'4 8.2
2018-Feb-17 01:00N 34°38' E 135°23'510.4
2018-Feb-17 00:30N 34°36' E 135°17'510.7
2018-Feb-17 00:01N 34°35' E 135°10'510.4
2018-Feb-16 23:30N 34°35' E 135°04'3 6.9
2018-Feb-16 23:00N 34°37' E 135°00'4 7.5
2018-Feb-16 22:30N 34°36' E 134°56'4 8.2
2018-Feb-16 22:01N 34°38' E 134°52'5 9.6
2018-Feb-16 21:30N 34°40' E 134°46'510.5
2018-Feb-16 21:01N 34°43' E 134°41'5 9.0
2018-Feb-16 20:30N 34°47' E 134°38'0 0.1
2018-Feb-16 17:09N 34°47' E 134°38'0 0.0
2018-Feb-16 16:15N 34°47' E 134°38'0 0.0
2018-Feb-16 14:39N 34°47' E 134°38'0 0.0
2018-Feb-16 14:27N 34°47' E 134°38'0 0.0
2018-Feb-16 13:57N 34°47' E 134°38'0 0.0
2018-Feb-16 13:27N 34°47' E 134°38'0 0.0
2018-Feb-16 11:27N 34°47' E 134°38'0 0.0
2018-Feb-16 08:39N 34°47' E 134°38'0 0.0
2018-Feb-16 08:27N 34°47' E 134°38'0 0.0
2018-Feb-16 07:03N 34°47' E 134°38'0 0.0
2018-Feb-16 06:33N 34°47' E 134°38'0 0.1
2018-Feb-16 06:27N 34°47' E 134°38'0 0.0
2018-Feb-16 05:57N 34°47' E 134°38'0 0.0
2018-Feb-16 05:27N 34°47' E 134°38'0 0.0
2018-Feb-16 04:15N 34°47' E 134°38'0 0.0
2018-Feb-16 03:57N 34°47' E 134°38'0 0.0
2018-Feb-16 01:01N 34°47' E 134°38'0 0.0
2018-Feb-16 00:59N 34°47' E 134°38'4 5.6
2018-Feb-16 00:20N 34°44' E 134°37'4 9.9
2018-Feb-15 23:58N 34°42' E 134°33'9 9.9
2018-Feb-15 23:04N 34°39' E 134°23'12 9.5
2018-Feb-15 21:47N 34°33' E 134°10'76 9.5
2018-Feb-15 13:46N 34°02' E 132°45'310.7
2018-Feb-15 13:30N 33°59' E 132°44'511.2
2018-Feb-15 13:00N 33°55' E 132°40'1911.1
2018-Feb-15 11:18N 33°42' E 132°23'2511.4
2018-Feb-15 09:06N 33°28' E 131°59'311.4
2018-Feb-15 08:49N 33°26' E 131°56'311.0
2018-Feb-15 08:30N 33°24' E 131°52'510.6
2018-Feb-15 07:59N 33°21' E 131°46'510.6
2018-Feb-15 07:30N 33°18' E 131°41'3 0.4
2018-Feb-14 23:36N 33°16' E 131°40'0 2.6
2018-Feb-14 23:27N 33°16' E 131°40'711.3
2018-Feb-14 22:52N 33°23' E 131°41'0 0.5
2018-Feb-14 22:08N 33°23' E 131°41'0 0.0
2018-Feb-14 21:56N 33°23' E 131°41'0 0.0
2018-Feb-14 20:26N 33°23' E 131°41'0 0.0
2018-Feb-14 19:50N 33°23' E 131°41'0 0.1
2018-Feb-14 19:14N 33°23' E 131°41'0 0.0
2018-Feb-14 18:56N 33°23' E 131°41'0 0.0
2018-Feb-14 18:26N 33°23' E 131°41'0 0.0
2018-Feb-14 17:59N 33°23' E 131°41'0 0.0
2018-Feb-14 17:20N 33°23' E 131°41'0 0.0
2018-Feb-14 16:44N 33°23' E 131°41'0 0.0
2018-Feb-14 16:29N 33°23' E 131°41'0 0.0
2018-Feb-14 15:56N 33°23' E 131°41'0 0.0
2018-Feb-14 15:28N 33°23' E 131°41'0 0.0
2018-Feb-14 14:55N 33°23' E 131°41'0 0.0
2018-Feb-14 14:26N 33°23' E 131°41'0 0.0
2018-Feb-14 13:55N 33°23' E 131°41'0 0.0
2018-Feb-14 13:20N 33°23' E 131°41'0 0.0
2018-Feb-14 12:53N 33°23' E 131°41'0 0.0
2018-Feb-14 12:28N 33°23' E 131°41'0 0.1
2018-Feb-14 11:55N 33°23' E 131°41'0 0.1
2018-Feb-14 11:23N 33°23' E 131°41'0 0.0
2018-Feb-14 10:38N 33°23' E 131°41'0 0.0
2018-Feb-14 10:23N 33°23' E 131°41'0 0.0
2018-Feb-14 09:58N 33°23' E 131°41'0 0.0
2018-Feb-14 09:20N 33°23' E 131°41'0 0.0
2018-Feb-14 08:55N 33°23' E 131°41'0 0.0
2018-Feb-14 08:28N 33°23' E 131°41'0 0.0
2018-Feb-14 07:44N 33°23' E 131°41'0 0.0
2018-Feb-14 07:29N 33°23' E 131°41'710.1
2018-Feb-14 06:45N 33°28' E 131°48'411.2
2018-Feb-14 06:22N 33°31' E 131°51'2611.2
2018-Feb-14 04:01N 33°53' E 132°10'112.1
2018-Feb-14 03:54N 33°54' E 132°09'811.2
2018-Feb-14 03:14N 34°00' E 132°14'312.3
2018-Feb-14 02:59N 34°03' E 132°15'612.1
2018-Feb-14 02:31N 34°08' E 132°18'612.1
2018-Feb-14 02:01N 34°14' E 132°21'611.5
2018-Feb-14 01:31N 34°17' E 132°26'4 7.8
2018-Feb-14 00:59N 34°20' E 132°30'0 0.0
2018-Feb-14 00:26N 34°20' E 132°30'0 0.0
2018-Feb-13 23:59N 34°20' E 132°30'0 0.0
2018-Feb-13 23:29N 34°20' E 132°30'0 0.1
2018-Feb-13 23:00N 34°20' E 132°30'0 0.5
2018-Feb-13 22:30N 34°20' E 132°30'0 0.0
2018-Feb-13 22:00N 34°20' E 132°30'0 0.0
2018-Feb-13 21:27N 34°20' E 132°30'0 0.0
2018-Feb-13 21:00N 34°20' E 132°30'0 0.0
2018-Feb-13 20:30N 34°20' E 132°30'0 0.0
2018-Feb-13 19:57N 34°20' E 132°30'0 0.0
2018-Feb-13 19:30N 34°20' E 132°30'0 0.0
2018-Feb-13 19:00N 34°20' E 132°30'0 0.0
2018-Feb-13 18:30N 34°20' E 132°30'0 0.0
2018-Feb-13 18:00N 34°20' E 132°30'0 0.0
2018-Feb-13 17:30N 34°20' E 132°30'0 0.0
2018-Feb-13 16:54N 34°20' E 132°30'0 0.0
2018-Feb-13 16:30N 34°20' E 132°30'0 0.0
2018-Feb-13 16:00N 34°20' E 132°30'0 0.0
2018-Feb-13 15:30N 34°20' E 132°30'0 0.0
2018-Feb-13 15:00N 34°20' E 132°30'0 0.0
2018-Feb-13 14:30N 34°20' E 132°30'0 0.0
2018-Feb-13 14:00N 34°20' E 132°30'0 0.0
2018-Feb-13 13:30N 34°20' E 132°30'0 0.0
2018-Feb-13 13:00N 34°20' E 132°30'0 0.0
2018-Feb-13 12:30N 34°20' E 132°30'0 0.0
2018-Feb-13 12:00N 34°20' E 132°30'0 0.0
2018-Feb-13 11:30N 34°20' E 132°30'0 0.1
2018-Feb-13 11:00N 34°20' E 132°30'0 0.0
2018-Feb-13 10:30N 34°20' E 132°30'0 0.0
2018-Feb-13 10:00N 34°20' E 132°30'0 0.0
2018-Feb-13 09:30N 34°20' E 132°30'0 0.0
2018-Feb-13 08:57N 34°20' E 132°30'0 0.0
2018-Feb-13 08:27N 34°20' E 132°30'0 0.0
2018-Feb-13 07:57N 34°20' E 132°30'0 0.0
2018-Feb-13 07:30N 34°20' E 132°30'0 0.0
2018-Feb-13 07:00N 34°20' E 132°30'0 0.0
2018-Feb-13 06:30N 34°20' E 132°30'0 0.0
2018-Feb-13 06:00N 34°20' E 132°30'0 0.0
2018-Feb-13 05:30N 34°20' E 132°30'0 0.0
2018-Feb-13 05:00N 34°20' E 132°30'0 0.0
2018-Feb-13 04:30N 34°20' E 132°30'0 0.0
2018-Feb-13 04:01N 34°20' E 132°30'2 4.6
2018-Feb-13 03:31N 34°18' E 132°30'611.3
2018-Feb-13 03:00N 34°12' E 132°32'4 0.5
2018-Feb-12 19:07N 34°13' E 132°37'0 0.0
2018-Feb-12 18:58N 34°13' E 132°37'3 6.7
2018-Feb-12 18:29N 34°10' E 132°38'91 9.5
2018-Feb-12 08:57N 34°39' E 134°23'510.1
2018-Feb-12 08:28N 34°41' E 134°28'510.0
2018-Feb-12 07:59N 34°43' E 134°33'5 9.4
2018-Feb-12 07:29N 34°46' E 134°38'0 0.0
2018-Feb-11 16:22N 34°46' E 134°38'0 1.1
2018-Feb-11 15:59N 34°45' E 134°38'0 0.0
2018-Feb-11 15:29N 34°45' E 134°38'0 0.0
2018-Feb-11 14:53N 34°45' E 134°38'0 0.0
2018-Feb-11 13:59N 34°45' E 134°38'  

Dump ship's entire track history